Sierra Nevada Aquatic Research Lab (SNARL) Reserve, Santa Monica Mtns, California Weather observations

Data are for 10 minute period ending at time listed.
 Day   Time   Solar   Ave.   Ave.  Ave.  Vector  Max.   Baro.   Total    
  of    of     Rad.   Air    Rel.  Wind   Wind   Wind  Press.  Precip.   
Year   Day            Temp.  Hum.  Speed  Dir.   Gust                    
2014   (PST)  Kw/m2    F      %     mph   deg.    mph    mb.     in.     
-------------------------------------------------------------------------
 204    6:30   0.26   56.2    47    0.9    29     2.0   789.9    0.00 
 204    6:40   0.30   59.3    43    0.1   212     1.1   789.8    0.00 
 204    6:50   0.33   61.6    43    1.6    32     3.4   789.7    0.00 
 204    7:00   0.37   62.2    40    2.3    62     5.2   789.6    0.00 
 204    7:10   0.41   62.3    42    2.0    66     4.5   789.7    0.00 
 204    7:20   0.44   63.1    42    1.8    61     4.2   789.7    0.00 
 204    7:30   0.47   63.8    39    2.6    58     4.6   789.7    0.00 
 204    7:40   0.51   65.3    36    3.2    56     7.3   789.8    0.00 
 204    7:50   0.54   66.0    34    5.5    75    11.1   789.9    0.00 
 204    8:00   0.57   66.8    33    7.7    86    12.5   789.9    0.00 
 204    8:10   0.61   67.2    32    6.7    86    10.8   789.9    0.00 
 204    8:20   0.64   68.3    30    6.9    89    12.0   789.9    0.00 
 204    8:30   0.67   69.0    29    5.3    73    10.3   789.9    0.00 
 204    8:40   0.70   70.0    27    5.9    86    11.2   789.9    0.00 
 204    8:50   0.69   70.8    26    4.3    73     8.4   790.0    0.00 
 204    9:00   0.76   71.6    24    3.8    83     9.9   789.9    0.00 
 204    9:10   0.79   72.6    23    3.6    64     7.7   789.9    0.00 
 204    9:20   0.81   73.6    21    2.9    59     8.3   789.9    0.00 
 204    9:30   0.84   75.0    19    2.9    64     7.5   789.8    0.00 
 204    9:40   0.86   75.7    18    5.2    86     9.6   789.8    0.00 
 204    9:50   0.88   76.1    17    5.0    86     8.4   789.8    0.00 
 204   10:00   0.90   77.4    15    3.8    64     7.0   789.8    0.00 
 204   10:10   0.92   78.3    13    3.2    43     7.3   789.7    0.00 
 204   10:20   0.94   78.9    12    4.4    82    10.2   789.7    0.00 
 204   10:30   0.95   79.4    12    8.1    99    15.9   789.6    0.00 
 204   10:40   0.97   80.2     9    4.5   120     9.9   789.6    0.00 
 204   10:50   0.98   80.6    10    3.4    66     8.4   789.4    0.00 
 204   11:00   0.99   81.3     9    3.9    77     8.8   789.4    0.00 
 204   11:10   1.00   82.5     9    3.3    95     7.0   789.4    0.00 
 204   11:20   1.01   82.4     9    3.7    76     8.1   789.3    0.00 
 204   11:30   1.01   83.3     8    3.0   241     9.9   789.3    0.00 
 204   11:40   1.02   82.9    10    8.8    98    19.1   789.2    0.00 
 204   11:50   1.02   83.0    11    8.5   125    15.5   789.2    0.00 
 204   12:00   1.02   83.6    11    6.1   119    18.4   789.2    0.00 
 204   12:10   1.02   82.8    10    4.1    88    10.2   789.1    0.00 
 204   12:20   1.02   82.1     9    8.9   249    20.6   789.1    0.00 
 204   12:30   1.02   82.6     8   11.6   237    34.3   789.0    0.00 
 204   12:40   1.01   84.2     9    8.0   243    20.5   788.9    0.00 
 204   12:50   1.00   84.3     9   11.8   244    28.1   788.9    0.00 
 204   13:00   0.99   83.9    10   12.3   247    25.5   788.7    0.00 
 204   13:10   0.99   84.3    10   12.8   232    28.1   788.8    0.00 
 204   13:20   0.98   84.1    10   16.9   240    30.5   788.7    0.00 
 204   13:30   0.96   83.7    11   12.6   240    25.1   788.7    0.00 
 204   13:40   0.95   84.3    11   13.0   258    22.3   788.6    0.00 
 204   13:50   0.94   84.2    12   12.2   230    23.8   788.6    0.00 
 204   14:00   0.92   84.6    11   12.3   246    31.9   788.5    0.00 
 204   14:10   0.90   84.4    12   15.1   247    29.1   788.4    0.00 
 204   14:20   0.88   83.8    11   14.7   240    32.1   788.4    0.00 
 204   14:30   0.85   84.7    12   11.8   230    22.9   788.3    0.00 
 204   14:40   0.83   83.9    12   10.5   244    22.8   788.3    0.00 
 204   14:50   0.81   83.7    12   11.0   235    25.4   788.3    0.00 
 204   15:00   0.78   84.3    11    7.7   242    19.0   788.2    0.00 
 204   15:10   0.76   83.6    11   14.2   235    32.4   788.2    0.00 
 204   15:20   0.73   82.9    10   17.3   231    33.3   788.2    0.00 
 204   15:30   0.69   83.3    10   12.2   255    22.1   788.1    0.00 
 204   15:40   0.67   83.2    10   12.8   247    26.5   788.1    0.00 
 204   15:50   0.63   82.7    10   14.3   219    38.7   788.1    0.00 
 204   16:00   0.60   83.0    10   14.9   234    29.5   788.0    0.00 
 204   16:10   0.57   82.5    10   13.8   247    31.9   788.0    0.00 
 204   16:20   0.53   82.5    11   11.4   238    23.6   787.9    0.00 
 204   16:30   0.50   82.4    10   10.9   229    26.0   787.9    0.00 
 204   16:40   0.46   82.1    12   10.9   253    25.8   787.8    0.00 
 204   16:50   0.43   81.9    11   12.5   233    27.8   787.8    0.00 
 204   17:00   0.39   81.4    12   11.2   241    22.4   787.8    0.00 
 204   17:10   0.36   81.1    12   13.5   252    22.4   787.7    0.00 
 204   17:20   0.32   80.7    12   11.0   245    19.6   787.8    0.00 
 204   17:30   0.29   80.8    12    9.7   239    22.0   787.9    0.00 
 204   17:40   0.25   80.8    12    8.5   236    18.0   787.8    0.00 
 204   17:50   0.22   80.1    13    9.9   234    19.9   787.8    0.00 
 204   18:00   0.18   79.4    13    9.4   230    15.9   787.9    0.00 
 204   18:10   0.15   78.9    14    6.1   274    16.2   787.9    0.00 
 204   18:20   0.12   78.4    16    5.7   291    10.7   788.1    0.00 
 204   18:30   0.09   74.8    21   10.0   308    18.1   788.2    0.00 
 204   18:40   0.06   73.1    22    7.2   316    15.1   788.3    0.00 
 204   18:50   0.04   71.8    23    9.1   319    19.9   788.3    0.00 
 204   19:00   0.00   70.2    23    7.6   311    13.2   788.3    0.00 
 204   19:10   0.00   69.4    23    8.4   301    16.5   788.3    0.00 
 204   19:20   0.00   68.8    24    8.9   292    17.1   788.3    0.00 
 204   19:30   0.00   67.5    24    5.6   281     9.0   788.4    0.00 
 204   19:40   0.00   66.9    25    5.0   276    10.6   788.5    0.00 
 204   19:50   0.00   65.1    27    2.3    80     5.0   788.5    0.00 
 204   20:00   0.00   63.1    28    1.5   248     5.0   788.5    0.00 
 204   20:10   0.00   62.3    29    1.4    96     4.1   788.4    0.00 
 204   20:20   0.00   60.7    30    2.1   187     4.8   788.4    0.00 
 204   20:30   0.00   60.8    29    2.8   164     7.2   788.4    0.00 
 204   20:40   0.00   60.3    30    1.0   148     2.5   788.5    0.00 
 204   20:50   0.00   60.6    30    2.0    61     3.4   788.4    0.00 
 204   21:00   0.00   58.7    32    3.3   279     6.4   788.3    0.00 
 204   21:10   0.00   56.9    32    2.0   266     3.7   788.4    0.00 
 204   21:20   0.00   55.7    34    3.2   268     5.6   788.3    0.00 
 204   21:30   0.00   54.8    34    3.1   255     5.1   788.3    0.00 
 204   21:40   0.00   53.4    36    3.7   233     6.3   788.2    0.00 
 204   21:50   0.00   52.4    38    2.3   263     4.5   788.2    0.00 
 204   22:00   0.00   51.5    36    1.2   199     3.9   788.2    0.00 
 204   22:10   0.00   51.5    38    2.5   240     4.1   788.3    0.00 
 204   22:20   0.00   50.3    40    3.2   196     4.5   788.3    0.00 
 204   22:30   0.00   49.4    39    1.5   185     3.4   788.3    0.00 
 204   22:40   0.00   49.3    40    2.3   190     5.3   788.4    0.00 
 204   22:50   0.00   48.9    39    3.2   178     6.5   788.6    0.00 
 204   23:00   0.00   48.5    41    1.7   179     4.7   788.6    0.00 
 204   23:10   0.00   48.6    42    0.6   186     2.8   788.6    0.00 
 204   23:20   0.00   47.5    42    3.1   239     4.5   788.6    0.00 
 204   23:30   0.00   47.7    42    3.6   252     6.2   788.6    0.00 
 204   23:40   0.00   47.2    42    3.1   244     5.8   788.7    0.00 
 204   23:50   0.00   46.5    42    3.7   249     5.7   788.6    0.00 
 205    0:00   0.00   46.2    44    2.0   200     3.5   788.6    0.00 
 205    0:10   0.00   46.1    45    3.5   253     5.8   788.6    0.00 
 205    0:20   0.00   46.9    42    2.7   200     4.2   788.6    0.00 
 205    0:30   0.00   46.8    41    3.4   227     8.7   788.6    0.00 
 205    0:40   0.00   46.9    41    3.6   219     6.4   788.5    0.00 
 205    0:50   0.00   47.7    39    3.0   201     5.9   788.4    0.00 
 205    1:00   0.00   45.9    42    2.3   232     4.8   788.3    0.00 
 205    1:10   0.00   46.3    41    2.1   228     3.6   788.3    0.00 
 205    1:20   0.00   46.0    42    2.7   236     5.3   788.2    0.00 
 205    1:30   0.00   45.7    41    1.2   202     3.9   788.2    0.00 
 205    1:40   0.00   45.8    41    1.8   234     3.7   788.1    0.00 
 205    1:50   0.00   44.9    42    2.3   204     5.1   788.0    0.00 
 205    2:00   0.00   43.7    41    2.2   222     5.0   788.0    0.00 
 205    2:10   0.00   43.4    41    1.1   248     3.3   788.1    0.00 
 205    2:20   0.00   42.9    40    1.5   199     3.5   788.2    0.00 
 205    2:30   0.00   43.3    40    2.5   230     6.9   788.1    0.00 
 205    2:40   0.00   44.4    39    2.5   250     4.8   788.1    0.00 
 205    2:50   0.00   44.4    39    1.9   228     5.3   788.1    0.00 
 205    3:00   0.00   44.7    38    1.2   232     3.9   788.0    0.00 
 205    3:10   0.00   43.3    38    1.3   258     4.4   787.9    0.00 
 205    3:20   0.00   43.8    36    1.2   215     2.4   788.0    0.00 
 205    3:30   0.00   43.6    40    0.9   143     3.1   788.1    0.00 
 205    3:40   0.00   41.1    40    2.2   216     5.0   788.1    0.00 
 205    3:50   0.00   41.5    36    1.7   190     4.0   788.1    0.00 
 205    4:00   0.00   40.8    40    1.2   199     3.7   788.1    0.00 
 205    4:10   0.00   40.5    38    3.0   234     5.7   788.1    0.00 
 205    4:20   0.00   40.7    36    2.2   198     4.0   788.1    0.00 
 205    4:30   0.00   41.7    34    1.7   226     3.9   788.1    0.00 
 205    4:40   0.00   41.5    34    1.6   206     3.6   788.1    0.00 
 205    4:50   0.00   42.2    34    2.5   244     3.7   788.2    0.00 
 205    5:00   0.00   41.5    36    2.2   220     4.2   788.2    0.00 
 205    5:10   0.00   40.9    36    2.1   179     4.2   788.2    0.00 
 205    5:20   0.01   40.0    38    1.0   236     2.6   788.3    0.00 
 205    5:30   0.01   42.5    36    1.9   243     3.4   788.3    0.00 
 205    5:40   0.03   43.7    45    1.4   308     3.4   788.4    0.00 
 205    5:50   0.12   45.6    45    1.4   243     3.1   788.4    0.00 
 205    6:00   0.16   50.0    41    1.7   248     3.1   788.4    0.00 
 205    6:10   0.20   53.0    38    1.5    37     3.7   788.4    0.00 
 205    6:20   0.23   56.0    33    1.1    79     2.9   788.4    0.00 

Return to SNARL Reserve graphs page.


Western Regional Climate Center,wrcc@dri.edu